Time;durP1;ratioP1;P1;durP2;ratioP2;P2;SDS_P1;SDS_P2;PMS_P1;PMS_P2;Temp;Humidity;BMP_temperature;BMP_pressure;BME280_temperature;BME280_humidity;BME280_pressure;Samples;Min_cycle;Max_cycle;Signal;HPM_P1;HPM_P2
2023/09/09 00:02:12;;;;;;;6.43;5.93;;;27.10;59.40;27.80;100816.00;;;;5008920;28;20257;-52
2023/09/09 00:04:38;;;;;;;6.30;5.80;;;27.10;59.50;27.80;100804.00;;;;5008265;28;20176;-52
2023/09/09 00:07:04;;;;;;;6.38;5.88;;;27.10;59.50;27.80;100813.00;;;;5008433;28;20646;-52
2023/09/09 00:09:30;;;;;;;6.30;5.70;;;27.10;59.30;27.70;100820.00;;;;5008544;28;20195;-53
2023/09/09 00:11:56;;;;;;;6.00;5.38;;;27.00;59.30;27.70;100825.00;;;;5008199;28;20666;-53
2023/09/09 00:14:21;;;;;;;6.03;5.53;;;27.00;59.60;27.70;100821.00;;;;5011151;28;20568;-52
2023/09/09 00:16:47;;;;;;;6.40;5.90;;;27.00;59.70;27.70;100812.00;;;;5008344;28;20183;-53
2023/09/09 00:19:13;;;;;;;6.28;5.60;;;27.00;59.90;27.70;100812.00;;;;5008298;28;20214;-53
2023/09/09 00:21:39;;;;;;;6.10;5.55;;;27.00;59.70;27.70;100810.00;;;;5008532;28;20603;-53
2023/09/09 00:24:05;;;;;;;6.30;5.70;;;27.00;59.70;27.70;100809.00;;;;5008677;28;20715;-51
2023/09/09 00:26:31;;;;;;;5.82;5.40;;;27.00;59.80;27.60;100811.00;;;;5008578;28;20665;-52
2023/09/09 00:28:57;;;;;;;6.50;5.90;;;27.00;59.90;27.60;100817.00;;;;5008616;28;20214;-51
2023/09/09 00:31:23;;;;;;;6.18;5.60;;;27.00;59.90;27.60;100809.00;;;;5008297;28;20321;-52
2023/09/09 00:33:49;;;;;;;6.32;5.40;;;26.90;59.80;27.60;100804.00;;;;5006783;28;20598;-52
2023/09/09 00:36:15;;;;;;;5.60;5.20;;;27.00;59.90;27.60;100808.00;;;;5008146;28;20203;-52
2023/09/09 00:38:41;;;;;;;6.10;5.60;;;26.90;59.80;27.60;100803.00;;;;5008193;28;20253;-52
2023/09/09 00:41:24;;;;;;;5.43;5.03;;;26.90;59.60;27.50;100807.00;;;;5008265;28;20216;-52
2023/09/09 00:43:50;;;;;;;5.93;5.43;;;26.90;59.60;27.50;100798.00;;;;5008609;28;20168;-52
2023/09/09 00:46:16;;;;;;;5.55;5.15;;;26.90;59.80;27.50;100800.00;;;;5008231;28;20174;-52
2023/09/09 00:48:42;;;;;;;5.22;4.82;;;26.90;59.80;27.50;100799.00;;;;5008001;28;20266;-52
2023/09/09 00:51:12;;;;;;;5.78;5.28;;;26.80;59.70;27.50;100794.00;;;;5008137;28;20190;-52
2023/09/09 00:53:39;;;;;;;5.80;5.30;;;26.80;59.80;27.40;100799.00;;;;5012306;28;20195;-53
2023/09/09 00:56:07;;;;;;;5.95;5.40;;;26.80;59.80;27.40;100730.00;;;;5012174;28;20175;-53
2023/09/09 00:58:32;;;;;;;5.65;5.25;;;26.80;59.60;27.40;100788.00;;;;5010449;28;20202;-52
2023/09/09 01:01:00;;;;;;;5.45;5.05;;;26.80;59.80;27.40;100789.00;;;;5011706;28;20191;-52
2023/09/09 01:03:26;;;;;;;5.57;5.07;;;26.80;59.60;27.40;100784.00;;;;5011588;28;20187;-53
2023/09/09 01:05:52;;;;;;;5.90;5.50;;;26.80;59.60;27.30;100793.00;;;;4994155;28;20188;-53
2023/09/09 01:08:27;;;;;;;5.90;5.40;;;26.80;59.70;27.30;100783.00;;;;5011334;28;20290;-52
2023/09/09 01:10:54;;;;;;;6.20;5.70;;;26.70;59.70;27.30;100793.00;;;;5012382;28;20187;-52
2023/09/09 01:13:19;;;;;;;5.68;5.28;;;26.70;59.60;27.30;100794.00;;;;5014324;28;20178;-52
2023/09/09 01:15:45;;;;;;;5.72;5.30;;;26.70;59.50;27.30;100795.00;;;;5013182;28;20227;-53
2023/09/09 01:18:11;;;;;;;5.70;5.30;;;26.70;59.60;27.30;100796.00;;;;5025704;28;20246;-53
2023/09/09 01:20:39;;;;;;;5.65;5.10;;;26.70;59.70;27.20;100797.00;;;;5011749;28;20739;-56
2023/09/09 01:23:04;;;;;;;5.40;4.90;;;26.60;59.70;27.20;100800.00;;;;5013092;28;20201;-52
2023/09/09 01:25:30;;;;;;;5.25;4.85;;;26.60;59.70;27.20;100797.00;;;;5012743;28;20499;-52
2023/09/09 01:27:56;;;;;;;5.65;5.15;;;26.60;59.90;27.20;100790.00;;;;5012831;28;20192;-52
2023/09/09 01:30:21;;;;;;;5.80;5.25;;;26.60;60.10;27.20;100794.00;;;;5015935;28;20187;-53
2023/09/09 01:32:47;;;;;;;5.90;5.25;;;26.50;60.00;27.20;100783.00;;;;5033138;28;20179;-53
2023/09/09 01:35:13;;;;;;;5.95;5.43;;;26.60;60.10;27.10;100790.00;;;;5012208;28;20187;-52
2023/09/09 01:37:39;;;;;;;5.63;5.13;;;26.50;60.20;27.10;100793.00;;;;5009740;28;20316;-52
2023/09/09 01:40:10;;;;;;;5.72;5.18;;;26.50;59.80;27.10;100791.00;;;;5011076;28;20285;-52
2023/09/09 01:42:40;;;;;;;5.78;5.32;;;26.50;59.70;27.10;100780.00;;;;5010814;28;20267;-52
2023/09/09 01:45:06;;;;;;;5.50;5.00;;;26.50;59.80;27.10;100789.00;;;;5011375;28;20175;-52
2023/09/09 01:47:32;;;;;;;5.70;5.30;;;26.60;59.80;27.10;100792.00;;;;5010579;28;20196;-53
2023/09/09 01:49:58;;;;;;;5.18;4.78;;;26.50;59.80;27.10;100778.00;;;;4993371;28;20186;-52
2023/09/09 01:52:23;;;;;;;5.55;5.10;;;26.50;59.60;27.00;100788.00;;;;5010870;28;20180;-53
2023/09/09 01:54:49;;;;;;;5.30;4.90;;;26.50;59.80;27.00;100788.00;;;;5010960;28;20179;-52
2023/09/09 01:57:19;;;;;;;5.43;5.03;;;26.40;60.00;27.00;100791.00;;;;5010895;28;20246;-52
2023/09/09 01:59:45;;;;;;;5.72;5.22;;;26.50;59.80;27.00;100753.00;;;;5010742;28;20864;-53
2023/09/09 02:02:15;;;;;;;5.45;4.97;;;26.50;59.70;27.00;100796.00;;;;5010673;28;20273;-53
2023/09/09 02:04:42;;;;;;;5.60;5.20;;;26.40;59.60;26.90;100790.00;;;;5010106;28;20670;-52
2023/09/09 02:07:08;;;;;;;5.80;5.30;;;26.40;59.60;26.90;100794.00;;;;5010647;28;20180;-53
2023/09/09 02:09:34;;;;;;;5.88;5.40;;;26.40;59.50;26.90;100795.00;;;;5009716;28;20595;-53
2023/09/09 02:12:03;;;;;;;5.25;4.85;;;26.40;59.50;26.90;100803.00;;;;5010604;28;20256;-53
2023/09/09 02:14:29;;;;;;;5.72;5.22;;;26.40;59.60;26.90;100794.00;;;;5013495;28;20182;-52
2023/09/09 02:16:55;;;;;;;6.00;5.40;;;26.40;59.50;26.80;100795.00;;;;5010368;28;20172;-53
2023/09/09 02:19:20;;;;;;;5.38;4.88;;;26.30;59.50;26.80;100799.00;;;;5009992;28;20269;-52
2023/09/09 02:21:46;;;;;;;5.72;5.22;;;26.30;59.60;26.80;100802.00;;;;5010463;28;20307;-53
2023/09/09 02:24:12;;;;;;;5.30;4.90;;;26.30;59.80;26.80;100802.00;;;;5010300;28;20176;-53
2023/09/09 02:26:38;;;;;;;5.88;5.38;;;26.30;59.80;26.80;100800.00;;;;5009831;28;20609;-53
2023/09/09 02:29:03;;;;;;;5.78;5.28;;;26.30;59.50;26.80;100804.00;;;;5010161;28;20236;-53
2023/09/09 02:31:29;;;;;;;5.43;4.93;;;26.30;59.40;26.80;100800.00;;;;5010077;28;20839;-53
2023/09/09 02:33:55;;;;;;;5.20;4.80;;;26.30;59.60;26.80;100799.00;;;;5010303;28;20194;-53
2023/09/09 02:36:21;;;;;;;5.55;5.05;;;26.30;59.70;26.70;100797.00;;;;5010046;28;20195;-52
2023/09/09 02:38:46;;;;;;;5.93;5.30;;;26.20;59.80;26.70;100799.00;;;;5009585;28;20207;-52
2023/09/09 02:41:12;;;;;;;5.43;5.03;;;26.10;60.00;26.70;100795.00;;;;5010107;28;20222;-53
2023/09/09 02:43:38;;;;;;;5.40;5.00;;;26.10;60.10;26.60;100809.00;;;;5008593;28;20231;-53
2023/09/09 02:46:04;;;;;;;5.82;5.32;;;26.10;59.90;26.60;100800.00;;;;5009931;28;20176;-52
2023/09/09 02:48:30;;;;;;;5.32;4.85;;;26.10;59.80;26.60;100794.00;;;;5009630;28;20520;-53
2023/09/09 02:50:56;;;;;;;5.10;4.72;;;26.20;59.80;26.60;100798.00;;;;5009805;28;20176;-53
2023/09/09 02:53:22;;;;;;;5.45;4.80;;;26.20;59.70;26.60;100793.00;;;;5008452;28;20188;-52
2023/09/09 02:55:48;;;;;;;5.65;5.15;;;26.20;59.70;26.60;100789.00;;;;5010000;28;20199;-53
2023/09/09 02:58:14;;;;;;;5.43;5.03;;;26.10;59.80;26.50;100793.00;;;;5009522;28;20199;-52
2023/09/09 03:00:40;;;;;;;5.15;4.70;;;26.10;59.80;26.50;100793.00;;;;5009936;28;20211;-53
2023/09/09 03:03:06;;;;;;;5.70;5.20;;;26.00;60.00;26.50;100797.00;;;;5011109;28;20256;-54
2023/09/09 03:05:35;;;;;;;5.80;5.20;;;26.00;60.00;26.50;100795.00;;;;5011032;28;20430;-53
2023/09/09 03:08:03;;;;;;;5.40;5.00;;;26.10;59.80;26.50;100797.00;;;;5010744;28;20199;-52
2023/09/09 03:10:29;;;;;;;5.38;4.97;;;26.10;59.80;26.50;100801.00;;;;4993590;28;20192;-53
2023/09/09 03:12:56;;;;;;;5.32;4.82;;;26.00;59.70;26.40;100793.00;;;;5011477;28;20682;-52
2023/09/09 03:15:23;;;;;;;5.32;4.93;;;26.00;59.70;26.40;100789.00;;;;5009877;28;20702;-53
2023/09/09 03:17:49;;;;;;;5.38;4.95;;;26.00;59.70;26.40;100794.00;;;;5011033;28;20253;-53
2023/09/09 03:20:15;;;;;;;5.57;5.13;;;26.00;59.80;26.40;100791.00;;;;5032587;28;20284;-53
2023/09/09 03:22:40;;;;;;;5.57;5.18;;;26.00;59.80;26.40;100797.00;;;;5016742;28;20172;-52
2023/09/09 03:25:08;;;;;;;6.05;5.55;;;26.00;59.80;26.30;100792.00;;;;5012583;28;20325;-52
2023/09/09 03:27:34;;;;;;;5.25;4.85;;;26.00;59.80;26.10;100793.00;;;;5011001;28;20222;-52
2023/09/09 03:30:00;;;;;;;7.25;5.10;;;25.90;59.80;26.30;100792.00;;;;5012836;28;20195;-52
2023/09/09 03:32:25;;;;;;;6.80;5.05;;;25.90;59.90;26.30;100793.00;;;;5011566;28;20184;-58
2023/09/09 03:34:52;;;;;;;5.95;5.38;;;25.90;60.00;26.30;100782.00;;;;5030547;28;20172;-52
2023/09/09 03:37:18;;;;;;;5.57;5.10;;;25.90;59.70;26.30;100793.00;;;;5013327;28;20179;-55
2023/09/09 03:39:43;;;;;;;5.43;4.90;;;25.90;59.80;26.20;100786.00;;;;5010290;28;20219;-52
2023/09/09 03:42:09;;;;;;;5.10;4.70;;;25.90;59.50;26.20;100784.00;;;;5010114;28;20584;-52
2023/09/09 03:44:35;;;;;;;7.30;6.80;;;25.80;59.60;26.20;100795.00;;;;5011476;28;20659;-52
2023/09/09 03:47:01;;;;;;;6.93;6.32;;;25.70;59.70;26.20;100792.00;;;;5010536;28;20180;-52
2023/09/09 03:49:26;;;;;;;6.28;5.78;;;25.70;59.80;26.10;100789.00;;;;5010248;28;20179;-52
2023/09/09 03:51:52;;;;;;;5.80;5.30;;;25.70;59.90;26.10;100789.00;;;;5010170;28;20179;-52
2023/09/09 03:54:18;;;;;;;5.97;5.47;;;25.80;60.00;26.10;100796.00;;;;5010085;28;20180;-52
2023/09/09 03:56:43;;;;;;;5.30;4.90;;;25.70;59.60;26.10;100792.00;;;;5009951;28;20233;-53
2023/09/09 03:59:09;;;;;;;5.95;5.30;;;25.70;59.50;26.10;100783.00;;;;5010030;28;20200;-53
2023/09/09 04:01:36;;;;;;;5.97;5.38;;;25.70;59.60;26.00;100787.00;;;;5009359;28;20211;-52
2023/09/09 04:04:02;;;;;;;5.38;4.97;;;25.70;59.50;26.00;100788.00;;;;5009945;28;20329;-52
2023/09/09 04:06:28;;;;;;;5.38;4.97;;;25.70;59.60;26.00;100790.00;;;;5009543;28;20665;-52
2023/09/09 04:08:56;;;;;;;5.10;4.70;;;25.70;59.50;26.00;100793.00;;;;5010125;28;20208;-51
2023/09/09 04:11:23;;;;;;;5.75;5.07;;;25.70;59.50;26.00;100798.00;;;;5010020;28;20192;-52
2023/09/09 04:13:48;;;;;;;5.45;4.95;;;25.70;59.40;26.00;100792.00;;;;5009931;28;20180;-52
2023/09/09 04:16:14;;;;;;;5.28;4.88;;;25.60;59.40;26.00;100792.00;;;;5005138;28;20183;-53
2023/09/09 04:18:40;;;;;;;5.20;4.72;;;25.60;59.40;25.90;100790.00;;;;5007713;28;20706;-52
2023/09/09 04:21:06;;;;;;;5.60;5.20;;;25.60;59.50;25.90;100791.00;;;;5007263;28;20195;-52
2023/09/09 04:23:32;;;;;;;5.70;5.28;;;25.50;59.70;25.90;100794.00;;;;5009182;28;20187;-53
2023/09/09 04:25:57;;;;;;;5.15;4.82;;;25.50;59.60;25.90;100783.00;;;;5009129;28;20532;-52
2023/09/09 04:28:26;;;;;;;5.38;4.90;;;25.50;59.40;25.90;100776.00;;;;5008521;28;20735;-52
2023/09/09 04:30:51;;;;;;;5.38;4.93;;;25.50;59.60;25.80;100792.00;;;;5009057;28;20199;-52
2023/09/09 04:33:17;;;;;;;5.68;5.18;;;25.60;59.50;25.80;100785.00;;;;5008894;28;20720;-52
2023/09/09 04:35:43;;;;;;;5.50;5.00;;;25.50;59.30;25.80;100797.00;;;;5007945;28;20270;-52
2023/09/09 04:38:09;;;;;;;5.43;4.90;;;25.50;59.40;25.80;100790.00;;;;5008630;28;20439;-52
2023/09/09 04:40:37;;;;;;;5.50;5.10;;;25.50;59.50;25.70;100793.00;;;;5007266;28;20211;-53
2023/09/09 04:43:03;;;;;;;6.25;5.15;;;25.40;59.80;25.70;100793.00;;;;5008977;28;20260;-52
2023/09/09 04:45:29;;;;;;;5.25;4.85;;;25.40;60.10;25.70;100795.00;;;;5008596;28;20176;-53
2023/09/09 04:47:55;;;;;;;5.82;5.20;;;25.40;59.90;25.70;100800.00;;;;5007401;28;20691;-52
2023/09/09 04:50:20;;;;;;;5.70;5.30;;;25.40;59.60;25.70;100803.00;;;;5008754;28;20305;-52
2023/09/09 04:52:47;;;;;;;6.25;5.65;;;25.40;59.60;25.70;100803.00;;;;5007704;28;20599;-52
2023/09/09 04:55:13;;;;;;;5.80;5.40;;;25.40;59.60;25.60;100803.00;;;;5008775;28;20187;-52
2023/09/09 04:57:40;;;;;;;5.57;5.07;;;25.40;59.70;25.60;100798.00;;;;5008516;28;20207;-52
2023/09/09 05:00:07;;;;;;;5.55;5.05;;;25.40;59.60;25.60;100804.00;;;;5009103;28;20291;-52
2023/09/09 05:02:37;;;;;;;5.68;5.18;;;25.30;59.60;25.60;100803.00;;;;5009038;28;20190;-52
2023/09/09 05:05:05;;;;;;;5.70;5.30;;;25.30;60.00;25.60;100812.00;;;;5007798;28;20206;-52
2023/09/09 05:07:34;;;;;;;6.03;5.50;;;25.30;59.90;25.50;100805.00;;;;5007871;28;20211;-51
2023/09/09 05:10:01;;;;;;;5.60;5.10;;;25.30;59.70;25.50;100818.00;;;;5008564;28;20194;-52
2023/09/09 05:12:27;;;;;;;5.50;5.00;;;25.30;59.90;25.50;100825.00;;;;5007168;28;20202;-52
2023/09/09 05:14:53;;;;;;;5.05;4.65;;;25.30;59.70;25.50;100817.00;;;;5010382;28;20183;-52
2023/09/09 05:17:19;;;;;;;5.18;4.78;;;25.30;59.60;25.50;100814.00;;;;5008433;28;20175;-52
2023/09/09 05:19:44;;;;;;;5.75;5.22;;;25.20;59.70;25.50;100811.00;;;;5016439;28;20203;-52
2023/09/09 05:22:10;;;;;;;5.35;4.95;;;25.20;59.80;25.40;100822.00;;;;5010268;28;20183;-52
2023/09/09 05:24:36;;;;;;;5.47;5.07;;;25.20;60.00;25.40;100810.00;;;;5009308;28;20180;-51
2023/09/09 05:27:02;;;;;;;5.60;5.20;;;25.20;59.90;25.40;100822.00;;;;5009461;28;20183;-55
2023/09/09 05:29:27;;;;;;;5.15;4.75;;;25.20;59.90;25.40;100823.00;;;;5009313;28;20191;-53
2023/09/09 05:31:53;;;;;;;5.97;5.57;;;25.20;59.80;25.40;100823.00;;;;5012830;28;20186;-52
2023/09/09 05:34:19;;;;;;;5.60;4.97;;;25.10;59.90;25.40;100827.00;;;;5016808;28;20180;-52
2023/09/09 05:36:44;;;;;;;5.60;5.10;;;25.10;59.90;25.30;100832.00;;;;5008926;28;20176;-51
2023/09/09 05:39:10;;;;;;;5.82;5.25;;;25.20;60.00;25.30;100835.00;;;;5009901;28;20196;-52
2023/09/09 05:41:36;;;;;;;5.60;5.10;;;25.20;59.90;25.30;100835.00;;;;5012197;28;20623;-52
2023/09/09 05:44:01;;;;;;;5.55;5.10;;;25.10;59.80;25.30;100790.00;;;;5011973;28;20195;-52
2023/09/09 05:46:27;;;;;;;7.22;4.65;;;25.10;60.00;25.30;100852.00;;;;5011152;28;20175;-52
2023/09/09 05:48:53;;;;;;;5.60;5.10;;;25.20;59.90;25.30;100844.00;;;;5011734;28;20191;-53
2023/09/09 05:51:19;;;;;;;5.60;5.15;;;25.10;59.90;25.30;100854.00;;;;5011627;28;20662;-52
2023/09/09 05:53:44;;;;;;;5.35;4.85;;;25.00;59.90;25.20;100847.00;;;;5011834;28;20192;-52
2023/09/09 05:56:10;;;;;;;5.50;5.00;;;25.00;60.10;25.20;100857.00;;;;5011493;28;20184;-52
2023/09/09 05:58:36;;;;;;;5.72;5.30;;;25.00;60.10;25.20;100848.00;;;;5011581;28;20219;-48
2023/09/09 06:01:02;;;;;;;5.40;5.00;;;25.00;60.10;25.20;100848.00;;;;5010665;28;20207;-50
2023/09/09 06:03:29;;;;;;;5.70;5.07;;;25.00;60.10;25.20;100857.00;;;;5011524;28;20680;-49
2023/09/09 06:05:55;;;;;;;5.47;5.00;;;25.00;60.10;25.20;100865.00;;;;5011780;28;20179;-49
2023/09/09 06:08:20;;;;;;;5.65;5.22;;;25.00;60.10;25.20;100861.00;;;;5010898;28;20283;-48
2023/09/09 06:10:46;;;;;;;5.05;4.65;;;25.00;60.10;25.20;100873.00;;;;5010571;28;20238;-48
2023/09/09 06:13:12;;;;;;;5.38;4.88;;;25.00;60.10;25.10;100877.00;;;;5009906;28;20180;-48
2023/09/09 06:15:37;;;;;;;6.22;4.75;;;24.90;60.30;25.10;100872.00;;;;5010971;28;20210;-48
2023/09/09 06:18:04;;;;;;;5.35;4.95;;;24.90;60.50;25.10;100872.00;;;;5009122;28;20214;-48
2023/09/09 06:20:29;;;;;;;5.30;4.88;;;24.90;61.70;25.10;100879.00;;;;5011232;28;20266;-48
2023/09/09 06:22:55;;;;;;;5.57;5.18;;;24.90;60.50;25.10;100879.00;;;;5011352;28;20615;-48
2023/09/09 06:25:21;;;;;;;5.50;5.00;;;24.90;60.50;25.10;100886.00;;;;5011247;28;20183;-48
2023/09/09 06:27:46;;;;;;;5.28;4.85;;;24.90;60.80;25.10;100878.00;;;;5010698;28;20211;-48
2023/09/09 06:30:12;;;;;;;5.32;4.93;;;24.80;60.80;25.10;100891.00;;;;5010950;28;20233;-48
2023/09/09 06:32:38;;;;;;;5.32;4.93;;;24.80;61.00;25.10;100880.00;;;;5010966;28;20277;-48
2023/09/09 06:35:05;;;;;;;5.40;5.00;;;24.80;61.10;25.10;100877.00;;;;5011221;28;20214;-50
2023/09/09 06:37:31;;;;;;;5.53;5.13;;;24.80;61.20;25.10;100882.00;;;;5010577;28;20204;-49
2023/09/09 06:39:56;;;;;;;5.32;4.82;;;24.80;61.20;25.10;100888.00;;;;5010947;28;20233;-48
2023/09/09 06:42:22;;;;;;;5.47;5.07;;;24.90;61.20;25.10;100881.00;;;;5011015;28;20694;-48
2023/09/09 06:44:48;;;;;;;5.35;4.93;;;24.80;61.10;25.10;100881.00;;;;5010930;28;20661;-48
2023/09/09 06:47:13;;;;;;;5.65;5.25;;;24.80;61.20;25.10;100874.00;;;;5010025;28;20259;-48
2023/09/09 06:49:39;;;;;;;5.80;5.30;;;24.80;61.30;25.10;100876.00;;;;5011279;28;20596;-49
2023/09/09 06:52:05;;;;;;;5.30;4.90;;;24.70;61.20;25.10;100895.00;;;;5011872;28;20529;-48
2023/09/09 06:54:31;;;;;;;5.72;5.15;;;24.70;61.50;25.00;100892.00;;;;5011155;28;20179;-49
2023/09/09 06:56:57;;;;;;;5.70;5.20;;;24.70;61.70;25.00;100890.00;;;;5010560;28;20187;-48
2023/09/09 06:59:23;;;;;;;5.80;5.30;;;24.70;61.70;25.00;100895.00;;;;5010272;28;20211;-47
2023/09/09 07:01:49;;;;;;;5.80;5.30;;;24.70;61.80;25.00;100899.00;;;;5008981;28;20608;-48
2023/09/09 07:04:14;;;;;;;5.60;5.10;;;24.70;62.00;25.00;100904.00;;;;5010565;28;20176;-48
2023/09/09 07:06:41;;;;;;;5.85;5.35;;;24.70;62.00;25.00;100908.00;;;;5010002;28;20172;-49
2023/09/09 07:09:09;;;;;;;5.28;4.85;;;24.70;62.00;25.00;100905.00;;;;5010455;28;20199;-49
2023/09/09 07:11:35;;;;;;;5.20;4.80;;;24.60;62.00;25.00;100901.00;;;;5010698;28;20337;-49
2023/09/09 07:14:01;;;;;;;5.35;4.85;;;24.60;62.10;25.00;100908.00;;;;5012311;28;20254;-51
2023/09/09 07:16:31;;;;;;;5.72;5.15;;;24.60;62.20;25.00;100901.00;;;;5019565;28;20171;-49
2023/09/09 07:18:57;;;;;;;5.40;4.90;;;24.60;62.30;24.90;100904.00;;;;5022222;28;20570;-49
2023/09/09 07:21:23;;;;;;;6.10;5.50;;;24.60;62.40;25.00;100903.00;;;;5010043;28;20597;-49
2023/09/09 07:23:48;;;;;;;5.20;4.80;;;24.60;62.50;24.90;100897.00;;;;5010650;28;20184;-49
2023/09/09 07:26:14;;;;;;;5.53;5.03;;;24.60;62.60;24.90;100910.00;;;;5010161;28;20179;-49
2023/09/09 07:28:40;;;;;;;5.45;4.95;;;24.60;62.70;24.90;100900.00;;;;5009893;28;20199;-50
2023/09/09 07:31:06;;;;;;;5.35;4.93;;;24.50;62.90;24.90;100900.00;;;;5020687;28;20188;-49
2023/09/09 07:33:32;;;;;;;5.07;4.68;;;24.60;62.90;24.90;100901.00;;;;5019867;28;20180;-49
2023/09/09 07:35:58;;;;;;;6.15;5.65;;;24.50;62.90;24.90;100907.00;;;;5010022;28;20242;-48
2023/09/09 07:38:24;;;;;;;5.65;5.22;;;24.50;62.90;24.60;100912.00;;;;4990918;28;20210;-49
2023/09/09 07:40:57;;;;;;;5.75;5.25;;;24.50;63.00;24.90;100895.00;;;;4992572;28;20681;-49
2023/09/09 07:43:23;;;;;;;5.22;4.82;;;24.50;63.30;24.90;100906.00;;;;5007977;28;20218;-49
2023/09/09 07:45:50;;;;;;;5.65;5.15;;;24.50;63.30;24.90;100913.00;;;;5009769;28;20176;-49
2023/09/09 07:48:16;;;;;;;6.50;4.95;;;24.50;63.30;24.90;100907.00;;;;5009231;28;20191;-48
2023/09/09 07:50:49;;;;;;;5.85;5.38;;;24.50;63.50;24.90;100907.00;;;;5009527;28;20187;-48
2023/09/09 07:53:15;;;;;;;5.78;5.38;;;24.50;64.00;24.80;100903.00;;;;5009361;28;20191;-49
2023/09/09 07:55:40;;;;;;;5.90;5.30;;;24.50;64.20;24.80;100890.00;;;;5009973;28;20195;-48
2023/09/09 07:58:06;;;;;;;5.97;5.38;;;24.50;64.20;24.80;100907.00;;;;5006850;28;20285;-48
2023/09/09 08:00:33;;;;;;;5.57;5.07;;;24.50;64.00;24.60;100894.00;;;;5008218;28;20231;-48
2023/09/09 08:02:59;;;;;;;5.70;5.20;;;24.50;64.10;24.80;100906.00;;;;5007423;28;20546;-48
2023/09/09 08:05:25;;;;;;;5.88;5.38;;;24.40;65.00;24.80;100906.00;;;;5006222;28;20206;-48
2023/09/09 08:07:50;;;;;;;5.63;5.22;;;24.40;64.20;24.80;100908.00;;;;5007788;28;20298;-48
2023/09/09 08:10:17;;;;;;;6.00;5.50;;;24.40;64.50;24.80;100907.00;;;;5006690;28;20673;-48
2023/09/09 08:12:42;;;;;;;6.10;5.60;;;24.30;64.60;24.80;100900.00;;;;5006446;28;20188;-50
2023/09/09 08:15:10;;;;;;;7.65;5.72;;;24.30;65.80;24.80;100910.00;;;;5005727;28;20294;-51
2023/09/09 08:17:37;;;;;;;6.50;5.82;;;24.30;65.80;24.80;100913.00;;;;5007533;28;20681;-46
2023/09/09 08:20:07;;;;;;;6.15;5.63;;;24.40;67.70;24.90;100923.00;;;;4992388;28;20674;-47
2023/09/09 08:22:34;;;;;;;6.00;5.50;;;24.30;67.00;24.90;100916.00;;;;5008775;28;20697;-48
2023/09/09 08:25:00;;;;;;;5.82;5.32;;;24.40;67.20;24.90;100906.00;;;;5008535;28;20585;-47
2023/09/09 08:27:26;;;;;;;6.07;5.65;;;24.40;66.80;24.90;100914.00;;;;5009488;28;20310;-47
2023/09/09 08:29:52;;;;;;;6.30;5.78;;;24.40;66.70;24.90;100909.00;;;;5008872;28;20546;-48
2023/09/09 08:32:19;;;;;;;7.88;5.80;;;24.40;66.70;24.90;100916.00;;;;5009580;28;20202;-47
2023/09/09 08:34:44;;;;;;;6.20;5.60;;;24.50;67.10;24.90;100914.00;;;;5009581;28;20190;-46
2023/09/09 08:37:10;;;;;;;6.50;5.85;;;24.50;67.10;24.90;100926.00;;;;5009290;28;20658;-47
2023/09/09 08:39:37;;;;;;;6.20;5.60;;;24.50;67.30;24.90;100916.00;;;;5009258;28;20187;-48
2023/09/09 08:42:37;;;;;;;6.50;5.93;;;24.50;67.20;25.00;100913.00;;;;5008539;28;20195;-47
2023/09/09 08:45:20;;;;;;;8.88;6.20;;;24.60;67.40;25.00;100909.00;;;;5008862;28;20225;-47
2023/09/09 08:47:46;;;;;;;6.78;6.18;;;24.70;68.40;25.00;100914.00;;;;5009405;28;20206;-48
2023/09/09 08:50:11;;;;;;;7.05;6.35;;;24.70;68.20;25.10;100915.00;;;;4975883;28;20176;-48
2023/09/09 08:52:37;;;;;;;6.82;6.15;;;24.70;69.00;25.10;100912.00;;;;4975658;28;20358;-47
2023/09/09 08:55:03;;;;;;;6.25;5.80;;;24.70;69.50;25.10;100918.00;;;;4992036;28;20218;-46
2023/09/09 08:57:29;;;;;;;6.78;6.15;;;24.70;68.80;25.10;100908.00;;;;4991573;28;20227;-47
2023/09/09 08:59:55;;;;;;;6.45;5.85;;;24.80;68.50;25.20;100911.00;;;;5009755;28;20228;-46
2023/09/09 09:02:21;;;;;;;6.80;6.20;;;24.80;68.40;25.20;100917.00;;;;4992083;28;20207;-47
2023/09/09 09:04:47;;;;;;;7.25;6.55;;;24.80;68.50;25.20;100890.00;;;;5009562;28;20866;-48
2023/09/09 09:07:12;;;;;;;6.55;6.05;;;24.80;68.40;25.20;100915.00;;;;5007754;28;20191;-47
2023/09/09 09:09:38;;;;;;;7.10;6.40;;;24.80;68.50;25.20;100918.00;;;;5008321;28;20180;-47
2023/09/09 09:12:04;;;;;;;6.75;6.15;;;24.80;68.80;25.20;100911.00;;;;5008553;28;20179;-47
2023/09/09 09:14:30;;;;;;;6.80;6.07;;;24.80;68.50;25.20;100917.00;;;;5014667;28;20211;-47
2023/09/09 09:16:56;;;;;;;6.68;6.18;;;24.80;69.00;25.30;100919.00;;;;5013156;28;20199;-47
2023/09/09 09:19:29;;;;;;;7.30;6.60;;;24.80;69.00;25.30;100920.00;;;;5011574;28;20713;-56
2023/09/09 09:21:55;;;;;;;6.90;6.07;;;24.90;69.30;25.30;100911.00;;;;5033156;28;20176;-56
2023/09/09 09:24:25;;;;;;;6.75;6.18;;;24.90;69.20;25.30;100915.00;;;;5016449;28;20202;-56
2023/09/09 09:26:50;;;;;;;7.60;6.30;;;24.90;69.40;25.40;100910.00;;;;5010688;28;20263;-57
2023/09/09 09:29:16;;;;;;;6.60;6.00;;;24.90;69.70;25.40;100913.00;;;;5011972;28;20184;-56
2023/09/09 09:31:42;;;;;;;6.95;6.35;;;25.00;69.60;25.40;100874.00;;;;5010170;28;20260;-52
2023/09/09 09:34:12;;;;;;;6.93;6.15;;;25.00;69.80;25.50;100915.00;;;;4991812;28;20249;-50
2023/09/09 09:36:38;;;;;;;6.95;6.35;;;25.00;69.80;25.50;100915.00;;;;5022412;28;20191;-51
2023/09/09 09:39:10;;;;;;;6.70;6.10;;;25.00;69.80;25.50;100916.00;;;;5023776;28;20558;-51
2023/09/09 09:41:39;;;;;;;7.32;6.63;;;25.00;69.90;25.50;100920.00;;;;5012127;28;20253;-56
2023/09/09 09:44:16;;;;;;;7.03;6.30;;;25.00;69.90;25.50;100904.00;;;;5011079;28;20180;-56
2023/09/09 09:46:42;;;;;;;6.32;5.82;;;25.10;69.60;25.50;100904.00;;;;5010384;28;20648;-56
2023/09/09 09:49:11;;;;;;;6.72;5.95;;;25.10;70.00;25.60;100907.00;;;;5010636;28;20203;-56
2023/09/09 09:51:43;;;;;;;6.90;6.30;;;25.10;70.40;25.60;100904.00;;;;5011622;28;20194;-55
2023/09/09 09:54:09;;;;;;;13.57;6.45;;;25.10;70.50;25.60;100903.00;;;;5010601;28;20203;-56
2023/09/09 09:56:34;;;;;;;6.82;6.20;;;25.10;71.50;25.60;100900.00;;;;5010087;28;20722;-55
2023/09/09 09:59:00;;;;;;;6.90;6.20;;;25.10;71.20;25.70;100904.00;;;;5010510;28;20378;-56
2023/09/09 10:01:26;;;;;;;6.68;5.85;;;25.20;70.90;25.70;100887.00;;;;4992363;28;20279;-55
2023/09/09 10:04:04;;;;;;;6.40;5.70;;;25.30;71.20;25.70;100903.00;;;;4977661;28;20271;-55
2023/09/09 10:06:30;;;;;;;7.55;6.63;;;25.30;71.20;25.70;100901.00;;;;5010919;28;20207;-55
2023/09/09 10:09:00;;;;;;;7.50;6.53;;;25.40;71.70;25.80;100897.00;;;;5010013;28;20229;-56
2023/09/09 10:11:28;;;;;;;7.57;6.28;;;25.40;70.60;25.80;100902.00;;;;5008935;28;20313;-55
2023/09/09 10:14:09;;;;;;;8.32;6.65;;;25.40;70.80;25.80;100909.00;;;;5009505;28;20206;-60
2023/09/09 10:16:35;;;;;;;6.85;6.13;;;25.40;71.10;25.80;100900.00;;;;5011452;28;20183;-55
2023/09/09 10:19:02;;;;;;;9.65;6.50;;;25.50;70.90;25.90;100898.00;;;;4996561;28;20223;-57
2023/09/09 10:21:27;;;;;;;7.22;6.18;;;25.50;70.70;25.90;100882.00;;;;5012481;28;20255;-56
2023/09/09 10:23:54;;;;;;;8.48;6.40;;;25.50;70.30;25.90;100894.00;;;;5012737;28;20176;-57
2023/09/09 10:26:20;;;;;;;10.10;6.10;;;25.50;69.70;25.90;100892.00;;;;5011592;28;20270;-56
2023/09/09 10:28:46;;;;;;;8.23;6.55;;;25.50;69.90;25.90;100889.00;;;;5011912;28;20199;-55
2023/09/09 10:31:12;;;;;;;7.57;6.40;;;25.50;70.50;26.00;100895.00;;;;5008804;28;20200;-57
2023/09/09 10:33:42;;;;;;;8.68;7.45;;;25.60;69.80;26.00;100892.00;;;;4993088;28;20718;-54
2023/09/09 10:36:08;;;;;;;8.43;6.65;;;25.60;70.10;26.00;100888.00;;;;4994339;28;20191;-55
2023/09/09 10:38:34;;;;;;;8.88;7.00;;;25.60;70.10;26.10;100902.00;;;;5010225;28;20940;-55
2023/09/09 10:41:02;;;;;;;7.30;6.50;;;25.70;69.80;26.10;100892.00;;;;5010397;28;20207;-53
2023/09/09 10:43:28;;;;;;;8.25;6.55;;;25.60;69.80;26.10;100894.00;;;;5009793;28;20187;-54
2023/09/09 10:45:54;;;;;;;7.22;6.50;;;25.60;70.50;26.10;100893.00;;;;5009998;28;20549;-57